LOT4AN LYPG-EPWA
Flight info
| Callsign | LOT4AN |
|---|---|
| Flight time | N/A |
| Altitude | 37000 |
| Route | NIK DCT PARAK/N0439F360 DCT DEMOP DCT KELEL/N0436F370 DCT ORTEB/N0438F380 DCT KONZI DCT LOGDA |
| Aircraft | B738/M-SDE2E3FGIJ1RWY/LB1 |
Departure
| Time | N/A |
|---|---|
| Airport | Podgorica Airport / Podgorica Golubovci Airbase (LYPG) |
Arrival
| Time | 2026-05-05 11:40 |
|---|---|
| Airport | Warsaw Chopin Airport (EPWA) |
| Time | Latitude | Longitude | Altitude | Speed | Heading |
|---|---|---|---|---|---|
| 2026-05-05 11:13 | 50.79291 | 20.73208 | 23117 ft | 434 kts | 10° |
| 2026-05-05 11:13 | 50.82245 | 20.74198 | 22395 ft | 434 kts | 10° |
| 2026-05-05 11:13 | 50.85187 | 20.75184 | 21792 ft | 431 kts | 10° |
| 2026-05-05 11:14 | 50.88103 | 20.76160 | 21208 ft | 427 kts | 10° |
| 2026-05-05 11:14 | 50.91004 | 20.77135 | 20639 ft | 424 kts | 10° |
| 2026-05-05 11:14 | 50.93877 | 20.78106 | 20059 ft | 421 kts | 10° |
| 2026-05-05 11:14 | 50.96728 | 20.79071 | 19501 ft | 418 kts | 10° |
| 2026-05-05 11:15 | 50.99566 | 20.80027 | 18952 ft | 415 kts | 10° |
| 2026-05-05 11:15 | 51.02386 | 20.80983 | 18414 ft | 413 kts | 9° |
| 2026-05-05 11:15 | 51.05182 | 20.81932 | 17853 ft | 410 kts | 9° |
| 2026-05-05 11:15 | 51.07968 | 20.82875 | 17236 ft | 407 kts | 9° |
| 2026-05-05 11:16 | 51.10765 | 20.83830 | 16664 ft | 405 kts | 9° |
| 2026-05-05 11:16 | 51.13511 | 20.84767 | 16112 ft | 402 kts | 9° |
| 2026-05-05 11:16 | 51.16233 | 20.85693 | 15578 ft | 399 kts | 9° |
| 2026-05-05 11:16 | 51.18948 | 20.86622 | 15040 ft | 397 kts | 9° |
| 2026-05-05 11:17 | 51.21637 | 20.87543 | 14509 ft | 395 kts | 9° |
| 2026-05-05 11:17 | 51.24321 | 20.88463 | 13979 ft | 393 kts | 9° |
| 2026-05-05 11:17 | 51.26994 | 20.89377 | 13440 ft | 392 kts | 9° |
| 2026-05-05 11:17 | 51.29647 | 20.90285 | 12933 ft | 388 kts | 9° |
| 2026-05-05 11:18 | 51.32280 | 20.91187 | 12431 ft | 385 kts | 9° |
| 2026-05-05 11:18 | 51.34885 | 20.92083 | 11936 ft | 382 kts | 9° |
| 2026-05-05 11:18 | 51.37481 | 20.92975 | 11429 ft | 380 kts | 9° |
| 2026-05-05 11:18 | 51.40059 | 20.93862 | 10949 ft | 378 kts | 9° |
| 2026-05-05 11:19 | 51.42608 | 20.94742 | 10712 ft | 368 kts | 9° |
| 2026-05-05 11:19 | 51.45067 | 20.95597 | 10618 ft | 355 kts | 9° |
| 2026-05-05 11:19 | 51.47438 | 20.96420 | 10534 ft | 342 kts | 9° |
| 2026-05-05 11:19 | 51.49728 | 20.97214 | 10447 ft | 331 kts | 9° |
| 2026-05-05 11:20 | 51.51944 | 20.97984 | 10377 ft | 320 kts | 9° |
| 2026-05-05 11:20 | 51.54094 | 20.98729 | 10231 ft | 313 kts | 9° |
| 2026-05-05 11:20 | 51.56213 | 20.99464 | 9993 ft | 310 kts | 9° |
| 2026-05-05 11:20 | 51.58322 | 21.00195 | 9690 ft | 310 kts | 9° |
| 2026-05-05 11:21 | 51.60429 | 21.00922 | 9386 ft | 309 kts | 9° |
| 2026-05-05 11:21 | 51.62523 | 21.01650 | 9134 ft | 306 kts | 9° |
| 2026-05-05 11:21 | 51.64599 | 21.02373 | 8844 ft | 305 kts | 10° |
| 2026-05-05 11:21 | 51.66663 | 21.03093 | 8532 ft | 302 kts | 10° |
| 2026-05-05 11:22 | 51.68717 | 21.03814 | 8253 ft | 301 kts | 10° |
| 2026-05-05 11:22 | 51.70752 | 21.04527 | 7966 ft | 299 kts | 10° |
| 2026-05-05 11:22 | 51.72785 | 21.05234 | 7676 ft | 298 kts | 11° |
| 2026-05-05 11:22 | 51.74805 | 21.05943 | 7420 ft | 296 kts | 11° |
| 2026-05-05 11:23 | 51.76809 | 21.06680 | 7193 ft | 294 kts | 12° |
| 2026-05-05 11:23 | 51.78803 | 21.07447 | 6913 ft | 293 kts | 11° |
| 2026-05-05 11:23 | 51.80787 | 21.08127 | 6618 ft | 293 kts | 11° |
| 2026-05-05 11:23 | 51.82782 | 21.08797 | 6367 ft | 292 kts | 10° |
| 2026-05-05 11:24 | 51.84748 | 21.09468 | 6096 ft | 286 kts | 11° |
| 2026-05-05 11:24 | 51.86695 | 21.10142 | 5540 ft | 287 kts | 11° |
| 2026-05-05 11:24 | 51.88644 | 21.10812 | 5166 ft | 283 kts | 11° |
| 2026-05-05 11:24 | 51.90557 | 21.11489 | 4761 ft | 282 kts | 12° |
| 2026-05-05 11:25 | 51.92484 | 21.12149 | 4557 ft | 281 kts | 11° |
| 2026-05-05 11:25 | 51.94369 | 21.12809 | 4457 ft | 273 kts | 11° |
| 2026-05-05 11:25 | 51.96203 | 21.13391 | 4371 ft | 265 kts | 2° |
| 2026-05-05 11:25 | 51.97979 | 21.12834 | 4167 ft | 261 kts | 335° |
| 2026-05-05 11:26 | 51.99642 | 21.11584 | 3805 ft | 261 kts | 330° |
| 2026-05-05 11:26 | 52.01230 | 21.10211 | 3412 ft | 256 kts | 329° |
| 2026-05-05 11:26 | 52.02774 | 21.08894 | 3141 ft | 249 kts | 329° |
| 2026-05-05 11:26 | 52.04241 | 21.07496 | 2816 ft | 239 kts | 328° |
| 2026-05-05 11:27 | 52.05679 | 21.06236 | 2545 ft | 230 kts | 330° |
| 2026-05-05 11:27 | 52.07098 | 21.05041 | 2199 ft | 230 kts | 332° |
| 2026-05-05 11:27 | 52.08472 | 21.03876 | 1987 ft | 217 kts | 328° |
| 2026-05-05 11:27 | 52.09764 | 21.02636 | 1665 ft | 212 kts | 327° |
| 2026-05-05 11:28 | 52.11019 | 21.01552 | 1457 ft | 201 kts | 332° |
| 2026-05-05 11:28 | 52.12255 | 21.00513 | 1077 ft | 199 kts | 328° |
| 2026-05-05 11:28 | 52.13458 | 20.99436 | 1135 ft | 204 kts | 330° |
| 2026-05-05 11:28 | 52.14701 | 20.98340 | 2387 ft | 196 kts | 328° |
| 2026-05-05 11:29 | 52.16032 | 20.97171 | 2897 ft | 239 kts | 329° |
| 2026-05-05 11:29 | 52.17560 | 20.95851 | 2970 ft | 258 kts | 330° |
| 2026-05-05 11:29 | 52.19165 | 20.94454 | 2964 ft | 268 kts | 330° |
| 2026-05-05 11:29 | 52.20841 | 20.92989 | 2944 ft | 278 kts | 330° |
| 2026-05-05 11:30 | 52.22401 | 20.91128 | 2995 ft | 273 kts | 306° |
| 2026-05-05 11:30 | 52.23159 | 20.88405 | 3188 ft | 260 kts | 283° |
| 2026-05-05 11:30 | 52.23569 | 20.85481 | 3005 ft | 265 kts | 278° |
| 2026-05-05 11:30 | 52.23891 | 20.82581 | 3015 ft | 256 kts | 278° |
| 2026-05-05 11:31 | 52.24192 | 20.79771 | 2998 ft | 245 kts | 279° |
| 2026-05-05 11:31 | 52.24527 | 20.77085 | 2928 ft | 237 kts | 279° |
| 2026-05-05 11:31 | 52.24842 | 20.74514 | 2980 ft | 229 kts | 278° |
| 2026-05-05 11:31 | 52.25160 | 20.71946 | 2992 ft | 232 kts | 279° |
| 2026-05-05 11:32 | 52.25505 | 20.69359 | 3001 ft | 234 kts | 279° |
| 2026-05-05 11:32 | 52.25816 | 20.66734 | 2976 ft | 237 kts | 278° |
| 2026-05-05 11:32 | 52.26213 | 20.64158 | 2974 ft | 233 kts | 294° |
| 2026-05-05 11:32 | 52.27299 | 20.62292 | 3079 ft | 228 kts | 328° |
| 2026-05-05 11:33 | 52.28830 | 20.61512 | 3086 ft | 237 kts | 354° |
| 2026-05-05 11:33 | 52.30479 | 20.61957 | 3022 ft | 240 kts | 24° |
| 2026-05-05 11:33 | 52.31735 | 20.63603 | 2994 ft | 226 kts | 59° |
| 2026-05-05 11:33 | 52.32330 | 20.65949 | 2929 ft | 226 kts | 85° |
| 2026-05-05 11:34 | 52.32335 | 20.68451 | 2965 ft | 218 kts | 102° |
| 2026-05-05 11:34 | 52.32014 | 20.70846 | 2967 ft | 215 kts | 117° |
| 2026-05-05 11:34 | 52.31024 | 20.72505 | 3022 ft | 207 kts | 160° |
| 2026-05-05 11:34 | 52.29591 | 20.72847 | 2988 ft | 211 kts | 188° |
| 2026-05-05 11:35 | 52.28195 | 20.72419 | 3027 ft | 201 kts | 192° |
| 2026-05-05 11:35 | 52.26859 | 20.72009 | 3006 ft | 189 kts | 190° |
| 2026-05-05 11:35 | 52.25585 | 20.71616 | 2985 ft | 183 kts | 191° |
| 2026-05-05 11:35 | 52.24371 | 20.71724 | 2956 ft | 172 kts | 155° |
| 2026-05-05 11:36 | 52.23591 | 20.73102 | 3026 ft | 168 kts | 127° |
| 2026-05-05 11:36 | 52.22938 | 20.74786 | 2970 ft | 180 kts | 125° |
| 2026-05-05 11:36 | 52.22265 | 20.76558 | 2738 ft | 183 kts | 122° |
| 2026-05-05 11:36 | 52.21699 | 20.78401 | 2468 ft | 180 kts | 120° |
| 2026-05-05 11:37 | 52.21155 | 20.80135 | 2234 ft | 167 kts | 116° |
| 2026-05-05 11:37 | 52.20767 | 20.81844 | 1988 ft | 157 kts | 116° |
| 2026-05-05 11:37 | 52.20283 | 20.83449 | 1841 ft | 159 kts | 118° |
| 2026-05-05 11:37 | 52.19824 | 20.85098 | 1607 ft | 159 kts | 117° |
| 2026-05-05 11:38 | 52.19374 | 20.86722 | 1351 ft | 156 kts | 116° |
| 2026-05-05 11:38 | 52.18936 | 20.88324 | 1190 ft | 154 kts | 118° |
| 2026-05-05 11:38 | 52.18480 | 20.89924 | 1029 ft | 156 kts | 116° |
| 2026-05-05 11:38 | 52.18027 | 20.91559 | 810 ft | 156 kts | 117° |
| 2026-05-05 11:39 | 52.17570 | 20.93171 | 592 ft | 158 kts | 117° |
| 2026-05-05 11:39 | 52.17117 | 20.94801 | 389 ft | 158 kts | 118° |
| 2026-05-05 11:39 | 52.16699 | 20.96268 | 337 ft | 115 kts | 115° |
| 2026-05-05 11:39 | 52.16455 | 20.97144 | 333 ft | 53 kts | 114° |
| 2026-05-05 11:40 | 52.16387 | 20.97602 | 333 ft | 23 kts | 88° |
| 2026-05-05 11:40 | 52.16398 | 20.97774 | 338 ft | 12 kts | 65° |
| 2026-05-05 11:40 | 52.16464 | 20.97755 | 336 ft | 12 kts | 301° |
| 2026-05-05 11:40 | 52.16501 | 20.97632 | 337 ft | 12 kts | 295° |
| 2026-05-05 11:41 | 52.16534 | 20.97511 | 334 ft | 12 kts | 294° |
| 2026-05-05 11:41 | 52.16567 | 20.97394 | 337 ft | 11 kts | 295° |
| 2026-05-05 11:41 | 52.16612 | 20.97316 | 334 ft | 10 kts | 329° |
| 2026-05-05 11:41 | 52.16671 | 20.97265 | 338 ft | 9 kts | 332° |
| 2026-05-05 11:42 | 52.16727 | 20.97217 | 337 ft | 9 kts | 332° |
| 2026-05-05 11:42 | 52.16778 | 20.97173 | 336 ft | 5 kts | 334° |
| 2026-05-05 11:42 | 52.16803 | 20.97207 | 336 ft | 6 kts | 72° |
| 2026-05-05 11:42 | 52.16811 | 20.97263 | 337 ft | 2 kts | 78° |
| 2026-05-05 11:43 | 52.16813 | 20.97281 | 337 ft | 2 kts | 78° |
| 2026-05-05 11:43 | 52.16815 | 20.97295 | 338 ft | 0 kts | 78° |
| 2026-05-05 11:43 | 52.16816 | 20.97308 | 338 ft | 0 kts | 78° |